Joliet, IL

1:26 PM CDT on September 21, 2014 (GMT -0500)
Timber View | Change Station
CLOSE
Current Station
Personal Weather Station
Location: Joliet, IL
Elevation: 617 ft
Nearby Weather Stations

Elev 617 ft 41.53 °N, 88.16 °W | Updated 1 second ago

Mostly Cloudy
Mostly Cloudy
67.6 °F
Feels Like 67.6 °F
N
3.8
Wind Variable Wind from West
Gusts 7.2 mph

Today
High -- | Low -- °F
--% Chance of Precip.
Yesterday
High -- | Low -- °F
Precip. -- in
6:39 AM 6:51 PM
Waning Crescent, 6% visible
Pressure 29.97 in
Visibility 10.0 miles
Clouds Mostly Cloudy 4200 ft
Mostly Cloudy 4700 ft
Dew Point 21 °F
Humidity 17%
Rainfall 0.00 in
Snow Depth Not available.
UV 4 out of 12
Pollen 3.90 out of 12
Ozone Good
PM2.5 Good
Flu Activity Not available.
METAR KJOT 211815Z AUTO 33008G14KT 10SM BKN042 BKN047 17/10 A2997 RMK AO2 T01740097

More Conditions Fewer Conditions

Pressure 29.97 in
Visibility 10.0 miles
Clouds Mostly Cloudy 4200 ft
Mostly Cloudy 4700 ft
Dew Point 21 °F
Humidity 17%
Rainfall 0.00 in
Snow Depth Not available.
UV 4 out of 12
Pollen 3.90 out of 12
Ozone Good
PM2.5 Good
Flu Activity Not available.
METAR KJOT 211815Z AUTO 33008G14KT 10SM BKN042 BKN047 17/10 A2997 RMK AO2 T01740097

More Conditions Fewer Conditions

10-Day Weather Forecast

Almanac

Astronomy

Sep. 21, 2014 Rise Set
Actual Time 6:39 AM CDT 6:51 PM CDT
Civil Twilight 6:11 AM CDT 7:19 PM CDT
Nautical Twilight 5:38 AM CDT 7:51 PM CDT
Astronomical Twilight 5:05 AM CDT 8:24 PM CDT
Moon 4:10 AM CDT 5:28 PM CDT
Length of Visible Light 13h 07m
Length of Day
12h 12m
Tomorrow will be 2m 46s shorter.
Waning Crescent, 6% of the Moon is Illuminated
Today
Waning Crescent
Sep 24
New
Oct 1
First Quarter
Oct 8
Full
Oct 15
Last Quarter

Today's Extremes

State Highs State Lows

Community

WunderPhotos

Upload Photos

1,755,212 photos uploaded!

WunderBlogs® & News

Nearby

Air Quality

  Air Quality AQ Index Pollutant
Yesterday Moderate
PM2.5
Yesterday Good
OZONE
Current Good
PM2.5
Current Good
OZONE
Sunday Good
PM2.5
Monday Good
PM2.5
Tuesday Moderate
PM2.5

Snow Depth

Station Depth Elevation
No new snow has been reported.

Earthquake Activity

City Distance Mag. Time & Date
No recent earthquake activity has been reported nearby.
Minimum magnitude displayed is 2.5.

Coastal Water Temperatures

Place Temperature
No Stations Reporting

Nearby Weather Stations